createdAt,value
2018-08-12T00:02:23.953Z,100974
2018-08-12T00:04:53.551Z,100978
2018-08-12T00:07:23.140Z,100975
2018-08-12T00:10:15.282Z,100975
2018-08-12T00:12:44.700Z,100973
2018-08-12T00:15:13.546Z,100973
2018-08-12T00:17:42.373Z,100972
2018-08-12T00:20:11.957Z,100977
2018-08-12T00:22:40.800Z,100971
2018-08-12T00:25:10.382Z,100971
2018-08-12T00:27:39.230Z,100965
2018-08-12T00:30:08.072Z,100952
2018-08-12T00:32:36.911Z,100951
2018-08-12T00:35:05.762Z,100945
2018-08-12T00:37:34.591Z,100940
2018-08-12T00:40:03.444Z,100938
2018-08-12T00:42:32.287Z,100941
2018-08-12T00:45:01.129Z,100936
2018-08-12T00:47:30.708Z,100935
2018-08-12T00:49:59.547Z,100936
2018-08-12T00:52:28.428Z,100938
2018-08-12T00:54:57.226Z,100938
2018-08-12T00:57:26.067Z,100934
2018-08-12T00:59:54.917Z,100930
2018-08-12T01:02:23.752Z,100937
2018-08-12T01:04:52.591Z,100929
2018-08-12T01:07:21.418Z,100924
2018-08-12T01:09:50.257Z,100929
2018-08-12T01:12:19.108Z,100923
2018-08-12T01:14:47.937Z,100930
2018-08-12T01:17:16.888Z,100929
2018-08-12T01:19:45.632Z,100925
2018-08-12T01:22:14.475Z,100929
2018-08-12T01:24:43.368Z,100921
2018-08-12T01:27:12.215Z,100921
2018-08-12T01:29:41.055Z,100916
2018-08-12T01:32:09.894Z,100923
2018-08-12T01:34:38.730Z,100917
2018-08-12T01:37:07.565Z,100920
2018-08-12T01:39:36.429Z,100917
2018-08-12T01:42:06.007Z,100912
2018-08-12T01:44:34.896Z,100917
2018-08-12T01:47:03.739Z,100910
2018-08-12T01:49:32.576Z,100911
2018-08-12T01:52:02.157Z,100908
2018-08-12T01:54:30.999Z,100904
2018-08-12T01:57:00.588Z,100899
2018-08-12T01:59:29.435Z,100895
2018-08-12T02:01:58.269Z,100893
2018-08-12T02:04:27.126Z,100897
2018-08-12T02:06:55.974Z,100895
2018-08-12T02:09:24.826Z,100897
2018-08-12T02:11:53.674Z,100893
2018-08-12T02:14:22.513Z,100882
2018-08-12T02:16:51.353Z,100878
2018-08-12T02:19:20.194Z,100872
2018-08-12T02:21:49.034Z,100867
2018-08-12T02:24:17.871Z,100867
2018-08-12T02:26:46.708Z,100870
2018-08-12T02:29:15.558Z,100873
2018-08-12T02:31:44.414Z,100869
2018-08-12T02:34:13.253Z,100874
2018-08-12T02:36:42.105Z,100871
2018-08-12T02:39:11.711Z,100865
2018-08-12T02:41:40.552Z,100853
2018-08-12T02:44:09.401Z,100849
2018-08-12T02:46:38.284Z,100857
2018-08-12T02:49:07.071Z,100859
2018-08-12T02:51:35.920Z,100854
2018-08-12T02:54:04.768Z,100843
2018-08-12T02:56:34.351Z,100837
2018-08-12T02:59:03.200Z,100846
2018-08-12T03:01:32.035Z,100844
2018-08-12T03:04:01.463Z,100845
2018-08-12T03:06:31.042Z,100839
2018-08-12T03:08:59.881Z,100827
2018-08-12T03:11:28.714Z,100832
2018-08-12T03:13:57.607Z,100835
2018-08-12T03:16:26.409Z,100836
2018-08-12T03:18:55.236Z,100836
2018-08-12T03:21:24.089Z,100835
2018-08-12T03:23:52.918Z,100836
2018-08-12T03:26:21.762Z,100831
2018-08-12T03:28:50.593Z,100838
2018-08-12T03:31:19.441Z,100843
2018-08-12T03:33:49.014Z,100834
2018-08-12T03:36:17.854Z,100832
2018-08-12T03:38:47.426Z,100829
2018-08-12T03:41:16.258Z,100822
2018-08-12T03:43:45.846Z,100830
2018-08-12T03:46:14.687Z,100821
2018-08-12T03:48:43.542Z,100824
2018-08-12T03:51:13.147Z,100817
2018-08-12T03:53:42.727Z,100820
2018-08-12T03:56:11.571Z,100815
2018-08-12T03:58:40.418Z,100817
2018-08-12T04:01:09.249Z,100812
2018-08-12T04:03:38.078Z,100810
2018-08-12T04:06:06.916Z,100808
2018-08-12T04:08:34.993Z,100801
2018-08-12T04:11:03.837Z,100807
2018-08-12T04:13:32.677Z,100791
2018-08-12T04:16:01.507Z,100797
2018-08-12T04:18:30.522Z,100788
2018-08-12T04:20:59.343Z,100801
2018-08-12T04:23:28.189Z,100794
2018-08-12T04:25:57.030Z,100801
2018-08-12T04:28:25.868Z,100796
2018-08-12T04:30:54.719Z,100801
2018-08-12T04:33:23.553Z,100803
2018-08-12T04:35:52.393Z,100797
2018-08-12T04:38:21.254Z,100801
2018-08-12T04:40:50.090Z,100797
2018-08-12T04:43:18.925Z,100794
2018-08-12T04:45:47.761Z,100790
2018-08-12T04:48:16.614Z,100790
2018-08-12T04:50:45.453Z,100787
2018-08-12T04:53:14.296Z,100785
2018-08-12T04:55:43.123Z,100784
2018-08-12T04:58:11.950Z,100780
2018-08-12T05:00:40.795Z,100779
2018-08-12T05:03:10.378Z,100782
2018-08-12T05:05:39.235Z,100784
2018-08-12T05:08:08.071Z,100780
2018-08-12T05:10:37.662Z,100777
2018-08-12T05:13:06.493Z,100790
2018-08-12T05:15:35.341Z,100775
2018-08-12T05:18:04.160Z,100780
2018-08-12T05:20:33.745Z,100771
2018-08-12T05:23:02.589Z,100779
2018-08-12T05:25:31.415Z,100778
2018-08-12T05:28:00.245Z,100792
2018-08-12T05:30:29.077Z,100784
2018-08-12T05:32:57.912Z,100779
2018-08-12T05:35:26.758Z,100778
2018-08-12T05:37:55.607Z,100771
2018-08-12T05:40:24.448Z,100774
2018-08-12T05:42:53.293Z,100777
2018-08-12T05:45:22.133Z,100771
2018-08-12T05:47:50.989Z,100767
2018-08-12T05:50:19.828Z,100766
2018-08-12T05:52:48.708Z,100760
2018-08-12T05:55:17.518Z,100766
2018-08-12T05:57:47.096Z,100764
2018-08-12T06:00:16.051Z,100760
2018-08-12T06:02:44.940Z,100757
2018-08-12T06:05:13.761Z,100758
2018-08-12T06:07:42.597Z,100758
2018-08-12T06:10:11.431Z,100750
2018-08-12T06:12:40.280Z,100754
2018-08-12T06:15:09.115Z,100759
2018-08-12T06:17:37.949Z,100755
2018-08-12T06:20:07.553Z,100756
2018-08-12T06:22:37.144Z,100766
2018-08-12T06:25:05.995Z,100759
2018-08-12T06:27:35.579Z,100755
2018-08-12T06:30:04.421Z,100742
2018-08-12T06:32:33.263Z,100748
2018-08-12T06:35:02.137Z,100752
2018-08-12T06:37:30.962Z,100746
2018-08-12T06:39:59.818Z,100745
2018-08-12T06:42:28.639Z,100741
2018-08-12T06:44:58.230Z,100730
2018-08-12T06:47:27.167Z,100736
2018-08-12T06:49:55.973Z,100740
2018-08-12T06:52:24.819Z,100737
2018-08-12T06:54:54.391Z,100741
2018-08-12T06:57:23.229Z,100741
2018-08-12T06:59:52.075Z,100740
2018-08-12T07:02:20.932Z,100735
2018-08-12T07:04:49.762Z,100736
2018-08-12T07:07:18.640Z,100730
2018-08-12T07:09:47.455Z,100737
2018-08-12T07:12:17.043Z,100742
2018-08-12T07:14:45.882Z,100740
2018-08-12T07:17:14.724Z,100731
2018-08-12T07:19:44.313Z,100730
2018-08-12T07:22:13.147Z,100724
2018-08-12T07:24:41.994Z,100721
2018-08-12T07:27:10.823Z,100714
2018-08-12T07:29:39.658Z,100716
2018-08-12T07:32:08.495Z,100715
2018-08-12T07:34:38.083Z,100707
2018-08-12T07:37:07.676Z,100711
2018-08-12T07:39:36.533Z,100713
2018-08-12T07:42:05.379Z,100710
2018-08-12T07:44:34.245Z,100708
2018-08-12T07:47:03.079Z,100708
2018-08-12T07:49:31.954Z,100711
2018-08-12T07:52:01.660Z,100701
2018-08-12T07:54:31.954Z,100701
2018-08-12T07:57:00.644Z,100705
2018-08-12T07:59:29.485Z,100695
2018-08-12T08:01:59.101Z,100695
2018-08-12T08:04:27.921Z,100696
2018-08-12T08:06:56.778Z,100693
2018-08-12T08:09:25.638Z,100696
2018-08-12T08:11:54.473Z,100699
2018-08-12T08:14:23.332Z,100693
2018-08-12T08:16:52.932Z,100689
2018-08-12T08:19:22.523Z,100695
2018-08-12T08:21:51.946Z,100690
2018-08-12T08:24:20.795Z,100686
2018-08-12T08:26:49.636Z,100684
2018-08-12T08:29:18.486Z,100689
2018-08-12T08:31:47.507Z,100683
2018-08-12T08:34:16.209Z,100683
2018-08-12T08:36:45.027Z,100684
2018-08-12T08:39:13.879Z,100678
2018-08-12T08:41:43.459Z,100673
2018-08-12T08:44:12.294Z,100671
2018-08-12T08:46:41.138Z,100670
2018-08-12T08:49:09.995Z,100668
2018-08-12T08:51:38.842Z,100671
2018-08-12T08:54:08.433Z,100664
2018-08-12T08:56:38.024Z,100663
2018-08-12T08:59:06.887Z,100653
2018-08-12T09:01:35.741Z,100654
2018-08-12T09:04:05.310Z,100642
2018-08-12T09:06:34.167Z,100648
2018-08-12T09:09:03.331Z,100646
2018-08-12T09:11:31.866Z,100640
2018-08-12T09:14:00.703Z,100633
2018-08-12T09:16:29.556Z,100634
2018-08-12T09:18:58.404Z,100641
2018-08-12T09:21:27.275Z,100629
2018-08-12T09:23:56.160Z,100629
2018-08-12T09:26:25.006Z,100631
2018-08-12T09:28:53.868Z,100630
2018-08-12T09:31:22.710Z,100630
2018-08-12T09:33:51.597Z,100632
2018-08-12T09:36:20.466Z,100625
2018-08-12T09:38:49.325Z,100618
2018-08-12T09:41:18.172Z,100615
2018-08-12T09:43:47.784Z,100620
2018-08-12T09:46:17.389Z,100617
2018-08-12T09:48:46.290Z,100606
2018-08-12T09:51:15.161Z,100604
2018-08-12T09:53:44.028Z,100602
2018-08-12T09:56:12.882Z,100602
2018-08-12T09:58:41.741Z,100601
2018-08-12T10:01:10.623Z,100595
2018-08-12T10:03:39.484Z,100591
2018-08-12T10:06:08.365Z,100593
2018-08-12T10:08:37.211Z,100594
2018-08-12T10:11:06.070Z,100592
2018-08-12T10:13:34.936Z,100588
2018-08-12T10:16:03.777Z,100583
2018-08-12T10:18:32.629Z,100577
2018-08-12T10:21:02.075Z,100570
2018-08-12T10:23:30.934Z,100563
2018-08-12T10:26:00.527Z,100564
2018-08-12T10:28:29.373Z,100573
2018-08-12T10:30:58.230Z,100557
2018-08-12T10:33:27.065Z,100558
2018-08-12T10:35:55.921Z,100545
2018-08-12T10:38:24.789Z,100547
2018-08-12T10:40:54.379Z,100543
2018-08-12T10:43:23.232Z,100533
2018-08-12T10:45:52.072Z,100534
2018-08-12T10:48:20.915Z,100537
2018-08-12T10:50:49.816Z,100531
2018-08-12T10:53:18.692Z,100528
2018-08-12T10:55:47.466Z,100530
2018-08-12T10:58:16.305Z,100519
2018-08-12T11:00:45.167Z,100516
2018-08-12T11:03:13.986Z,100513
2018-08-12T11:05:42.833Z,100518
2018-08-12T11:08:11.677Z,100510
2018-08-12T11:10:41.267Z,100510
2018-08-12T11:13:10.692Z,100501
2018-08-12T11:15:39.547Z,100502
2018-08-12T11:18:08.395Z,100501
2018-08-12T11:20:37.295Z,100495
2018-08-12T11:23:06.420Z,100485
2018-08-12T11:25:35.262Z,100483
2018-08-12T11:28:04.851Z,100476
2018-08-12T11:30:33.731Z,100476
2018-08-12T11:33:03.173Z,100479
2018-08-12T11:35:32.017Z,100476
2018-08-12T11:38:00.876Z,100470
2018-08-12T11:40:29.727Z,100462
2018-08-12T11:42:58.570Z,100459
2018-08-12T11:45:27.417Z,100457
2018-08-12T11:47:56.257Z,100449
2018-08-12T11:50:25.092Z,100441
2018-08-12T11:52:54.671Z,100454
2018-08-12T11:55:23.530Z,100450
2018-08-12T11:57:52.376Z,100443
2018-08-12T12:00:21.964Z,100437
2018-08-12T12:02:50.798Z,100432
2018-08-12T12:05:19.721Z,100436
2018-08-12T12:07:48.515Z,100423
2018-08-12T12:10:17.353Z,100423
2018-08-12T12:12:46.963Z,100427
2018-08-12T12:15:15.817Z,100424
2018-08-12T12:17:44.658Z,100411
2018-08-12T12:20:13.509Z,100415
2018-08-12T12:22:42.367Z,100415
2018-08-12T12:25:11.213Z,100410
2018-08-12T12:27:40.066Z,100409
2018-08-12T12:30:08.951Z,100398
2018-08-12T12:32:37.803Z,100392
2018-08-12T12:35:06.640Z,100394
2018-08-12T12:37:35.482Z,100391
2018-08-12T12:40:04.322Z,100382
2018-08-12T12:42:33.160Z,100378
2018-08-12T12:45:02.739Z,100376
2018-08-12T12:47:31.604Z,100375
2018-08-12T12:50:00.472Z,100365
2018-08-12T12:52:29.288Z,100361
2018-08-12T12:54:58.136Z,100361
2018-08-12T12:57:26.981Z,100359
2018-08-12T12:59:55.829Z,100363
2018-08-12T13:02:24.678Z,100355
2018-08-12T13:04:53.518Z,100363
2018-08-12T13:07:22.357Z,100351
2018-08-12T13:09:51.964Z,100345
2018-08-12T13:12:20.824Z,100346
2018-08-12T13:14:49.643Z,100336
2018-08-12T13:17:18.485Z,100335
2018-08-12T13:19:47.323Z,100336
2018-08-12T13:22:16.897Z,100323
2018-08-12T13:24:45.758Z,100317
2018-08-12T13:27:14.600Z,100313
2018-08-12T13:29:43.441Z,100309
2018-08-12T13:32:12.285Z,100304
2018-08-12T13:34:41.137Z,100304
2018-08-12T13:37:09.971Z,100301
2018-08-12T13:39:39.555Z,100292
2018-08-12T13:42:08.403Z,100292
2018-08-12T13:44:37.324Z,100288
2018-08-12T13:47:06.123Z,100282
2018-08-12T13:49:34.965Z,100286
2018-08-12T13:52:03.808Z,100284
2018-08-12T13:54:32.653Z,100278
2018-08-12T13:57:01.480Z,100283
2018-08-12T13:59:30.317Z,100277
2018-08-12T14:01:59.166Z,100269
2018-08-12T14:04:28.006Z,100260
2018-08-12T14:06:56.881Z,100260
2018-08-12T14:09:25.686Z,100248
2018-08-12T14:11:54.526Z,100252
2018-08-12T14:14:23.375Z,100250
2018-08-12T14:16:52.475Z,100239
2018-08-12T14:19:21.081Z,100228
2018-08-12T14:21:49.929Z,100233
2018-08-12T14:24:18.783Z,100224
2018-08-12T14:26:47.637Z,100223
2018-08-12T14:29:16.481Z,100213
2018-08-12T14:31:45.336Z,100213
2018-08-12T14:34:14.176Z,100210
2018-08-12T14:36:43.035Z,100204
2018-08-12T14:39:11.877Z,100197
2018-08-12T14:41:40.735Z,100195
2018-08-12T14:44:09.576Z,100201
2018-08-12T14:46:38.418Z,100193
2018-08-12T14:49:07.267Z,100186
2018-08-12T14:51:36.108Z,100187
2018-08-12T14:54:04.941Z,100178
2018-08-12T14:56:33.781Z,100189
2018-08-12T14:59:02.641Z,100181
2018-08-12T15:01:31.487Z,100170
2018-08-12T15:04:00.329Z,100177
2018-08-12T15:06:29.901Z,100170
2018-08-12T15:08:58.747Z,100166
2018-08-12T15:11:27.581Z,100164
2018-08-12T15:13:56.429Z,100161
2018-08-12T15:16:25.277Z,100158
2018-08-12T15:18:54.125Z,100152
2018-08-12T15:21:22.982Z,100152
2018-08-12T15:23:52.552Z,100153
2018-08-12T15:26:21.391Z,100147
2018-08-12T15:28:50.239Z,100143
2018-08-12T15:31:19.074Z,100142
2018-08-12T15:33:47.941Z,100137
2018-08-12T15:36:16.842Z,100132
2018-08-12T15:38:45.656Z,100131
2018-08-12T15:41:14.524Z,100134
2018-08-12T15:43:43.401Z,100125
2018-08-12T15:46:12.282Z,100122
2018-08-12T15:48:41.114Z,100118
2018-08-12T15:51:09.973Z,100108
2018-08-12T15:53:38.806Z,100102
2018-08-12T15:56:07.667Z,100108
2018-08-12T15:58:36.511Z,100103
2018-08-12T16:01:05.927Z,100098
2018-08-12T16:03:35.548Z,100095
2018-08-12T16:06:04.354Z,100090
2018-08-12T16:08:33.205Z,100089
2018-08-12T16:11:02.800Z,100096
2018-08-12T16:13:31.646Z,100095
2018-08-12T16:16:00.502Z,100087
2018-08-12T16:18:30.081Z,100084
2018-08-12T16:20:58.925Z,100095
2018-08-12T16:23:27.767Z,100086
2018-08-12T16:25:56.633Z,100075
2018-08-12T16:28:25.476Z,100083
2018-08-12T16:30:54.319Z,100079
2018-08-12T16:33:23.154Z,100078
2018-08-12T16:35:51.999Z,100070
2018-08-12T16:38:20.848Z,100069
2018-08-12T16:40:49.705Z,100063
2018-08-12T16:43:18.525Z,100062
2018-08-12T16:45:47.374Z,100050
2018-08-12T16:48:16.314Z,100045
2018-08-12T16:50:45.071Z,100045
2018-08-12T16:53:14.652Z,100038
2018-08-12T16:55:43.505Z,100045
2018-08-12T16:58:12.345Z,100037
2018-08-12T17:00:41.952Z,100031
2018-08-12T17:03:11.520Z,100029
2018-08-12T17:05:40.365Z,100033
2018-08-12T17:08:09.222Z,100023
2018-08-12T17:10:38.060Z,100023
2018-08-12T17:13:06.920Z,100017
2018-08-12T17:15:35.762Z,100022
2018-08-12T17:18:04.651Z,100022
2018-08-12T17:20:33.474Z,100016
2018-08-12T17:23:02.301Z,100016
2018-08-12T17:25:31.185Z,100007
2018-08-12T17:27:59.993Z,100005
2018-08-12T17:30:28.838Z,100000
2018-08-12T17:32:58.414Z,100001
2018-08-12T17:35:27.278Z,99991
2018-08-12T17:37:56.115Z,99989
2018-08-12T17:40:24.968Z,99995
2018-08-12T17:42:53.818Z,99994
2018-08-12T17:45:22.645Z,99994
2018-08-12T17:47:51.487Z,99988
2018-08-12T17:50:21.084Z,99988
2018-08-12T17:52:49.923Z,99993
2018-08-12T17:55:18.774Z,99993
2018-08-12T17:57:48.367Z,100000
2018-08-12T18:00:17.223Z,99993
2018-08-12T18:02:46.071Z,99987
2018-08-12T18:05:14.926Z,99992
2018-08-12T18:07:43.829Z,99990
2018-08-12T18:10:12.670Z,99992
2018-08-12T18:12:41.532Z,99994
2018-08-12T18:15:11.110Z,99991
2018-08-12T18:17:39.977Z,100006
2018-08-12T18:20:08.814Z,100002
2018-08-12T18:22:38.408Z,99999
2018-08-12T18:25:07.242Z,100011
2018-08-12T18:27:36.094Z,99999
2018-08-12T18:30:04.938Z,99994
2018-08-12T18:32:33.781Z,99993
2018-08-12T18:35:02.617Z,99993
2018-08-12T18:37:31.468Z,99993
2018-08-12T18:40:01.045Z,99993
2018-08-12T18:42:29.911Z,99987
2018-08-12T18:44:58.753Z,99995
2018-08-12T18:47:27.596Z,99995
2018-08-12T18:49:56.430Z,99990
2018-08-12T18:52:26.006Z,99985
2018-08-12T18:54:54.864Z,99990
2018-08-12T18:57:23.687Z,99988
2018-08-12T18:59:52.518Z,99990
2018-08-12T19:02:21.378Z,99989
2018-08-12T19:04:50.362Z,99993
2018-08-12T19:07:19.067Z,99991
2018-08-12T19:09:48.825Z,100001
2018-08-12T19:12:17.578Z,99991
2018-08-12T19:14:46.498Z,100000
2018-08-12T19:17:15.348Z,100002
2018-08-12T19:19:44.194Z,100002
2018-08-12T19:22:13.042Z,100006
2018-08-12T19:24:41.880Z,100004
2018-08-12T19:27:10.741Z,100007
2018-08-12T19:29:39.590Z,100006
2018-08-12T19:32:09.173Z,100000
2018-08-12T19:34:38.035Z,100003
2018-08-12T19:37:06.886Z,100004
2018-08-12T19:39:35.731Z,99993
2018-08-12T19:42:04.569Z,99990
2018-08-12T19:44:33.504Z,99988
2018-08-12T19:47:02.297Z,99992
2018-08-12T19:49:31.143Z,99991
2018-08-12T19:52:00.091Z,99991
2018-08-12T19:54:28.937Z,99991
2018-08-12T19:56:57.800Z,99992
2018-08-12T19:59:26.679Z,99986
2018-08-12T20:01:55.526Z,99977
2018-08-12T20:04:24.412Z,99984
2018-08-12T20:06:53.377Z,99977
2018-08-12T20:09:22.063Z,99980
2018-08-12T20:11:50.961Z,99979
2018-08-12T20:14:19.792Z,99972
2018-08-12T20:16:49.381Z,99969
2018-08-12T20:19:18.337Z,99964
2018-08-12T20:21:47.178Z,99962
2018-08-12T20:24:16.770Z,99965
2018-08-12T20:26:45.639Z,99969
2018-08-12T20:29:14.521Z,99972
2018-08-12T20:31:43.506Z,99965
2018-08-12T20:34:12.332Z,99960
2018-08-12T20:36:41.173Z,99959
2018-08-12T20:39:10.764Z,99959
2018-08-12T20:41:40.423Z,99955
2018-08-12T20:44:09.260Z,99957
2018-08-12T20:46:38.100Z,99952
2018-08-12T20:49:06.946Z,99958
2018-08-12T20:51:35.801Z,99950
2018-08-12T20:54:04.648Z,99958
2018-08-12T20:56:34.253Z,99960
2018-08-12T20:59:03.876Z,99950
2018-08-12T21:01:32.776Z,99949
2018-08-12T21:04:01.589Z,99950
2018-08-12T21:06:30.447Z,99949
2018-08-12T21:09:00.039Z,99949
2018-08-12T21:11:28.908Z,99949
2018-08-12T21:13:57.738Z,99946
2018-08-12T21:16:27.343Z,99947
2018-08-12T21:18:56.237Z,99949
2018-08-12T21:21:25.036Z,99947
2018-08-12T21:23:54.637Z,99949
2018-08-12T21:26:23.495Z,99942
2018-08-12T21:28:52.365Z,99942
2018-08-12T21:31:21.911Z,99945
2018-08-12T21:33:50.754Z,99942
2018-08-12T21:36:19.583Z,99937
2018-08-12T21:38:48.430Z,99940
2018-08-12T21:41:17.272Z,99940
2018-08-12T21:43:46.702Z,99936
2018-08-12T21:46:16.296Z,99942
2018-08-12T21:48:45.164Z,99945
2018-08-12T21:51:14.775Z,99928
2018-08-12T21:53:43.687Z,99938
2018-08-12T21:56:13.272Z,99942
2018-08-12T21:58:42.126Z,99946
2018-08-12T22:01:10.956Z,99938
2018-08-12T22:03:40.558Z,99950
2018-08-12T22:06:09.397Z,99943
2018-08-12T22:08:38.977Z,99945
2018-08-12T22:11:07.823Z,99939
2018-08-12T22:13:37.406Z,99937
2018-08-12T22:16:06.244Z,99946
2018-08-12T22:18:35.135Z,99949
2018-08-12T22:21:03.970Z,99954
2018-08-12T22:23:32.796Z,99951
2018-08-12T22:26:02.382Z,99949
2018-08-12T22:28:31.207Z,99949
2018-08-12T22:31:00.053Z,99947
2018-08-12T22:33:28.889Z,99948
2018-08-12T22:35:58.509Z,99947
2018-08-12T22:38:27.906Z,99940
2018-08-12T22:40:57.492Z,99939
2018-08-12T22:43:26.346Z,99944
2018-08-12T22:45:55.196Z,99933
2018-08-12T22:48:24.775Z,99927
2018-08-12T22:50:53.633Z,99930
2018-08-12T22:53:22.474Z,99935
2018-08-12T22:55:52.064Z,99930
2018-08-12T22:58:20.909Z,99918
2018-08-12T23:00:49.760Z,99932
2018-08-12T23:03:19.338Z,99929
2018-08-12T23:05:48.179Z,99920
2018-08-12T23:08:17.040Z,99921
2018-08-12T23:10:45.876Z,99917
2018-08-12T23:13:14.705Z,99912
2018-08-12T23:16:00.147Z,99910
2018-08-12T23:18:28.981Z,99911
2018-08-12T23:20:57.809Z,99912
2018-08-12T23:23:26.648Z,99915
2018-08-12T23:25:55.485Z,99913
2018-08-12T23:28:24.326Z,99915
2018-08-12T23:30:53.161Z,99914
2018-08-12T23:33:21.999Z,99909
2018-08-12T23:35:50.840Z,99917
2018-08-12T23:38:19.682Z,99908
2018-08-12T23:40:48.517Z,99908
2018-08-12T23:43:17.381Z,99902
2018-08-12T23:45:46.955Z,99906
2018-08-12T23:48:15.788Z,99910
2018-08-12T23:50:44.630Z,99898
2018-08-12T23:53:13.469Z,99905
2018-08-12T23:55:43.061Z,99905
2018-08-12T23:58:12.649Z,99898
